Carnival Victory — 3FFL8 — position and weather

sailwx.info

Track history (hours):
 
Tides and Currents Weather Stations Pressure Air Temp Water Temp Dewpoint Dewpoint Depression Visibility Wind Speed Wind Dir Waves Ship Positions

Carnival Victory

Operator: Carnival Cruise Lines

Last reported at 2017-Jan-19 15:00 UTC. Time now 2017-Jan-19 21:23 UTC.
Position N 24°42' W 074°48'.

Type: Ship. MMSI: 355263000.

Wind from 150 at 8 knots

Barometer 1018.6 mb
Air temperature 23.0 ° C
Visibility: greater than 10.8 NM
Dewpoint 20.1 ° C
Water temperature 26.0 ° C

Date/timePositionNaut miles runAvg speedWind from/ knotsBaromVisibWave heightAir tempDewpointWater temp
2017-Jan-19 15:00N 24°42' W 074°48'5718.9 150 / 81018.610.8 23.020.126.0
2017-Jan-19 12:00N 24°06' W 074°00'101 3.1 180 / 91017.910.8 23.020.126.0
2017-Jan-18 03:00N 22°54' W 072°42'19416.2 210 / 171022.310.8 23.020.126.0
2017-Jan-17 15:00N 25°00' W 075°24'3618.1 240 / 211024.610.8 23.020.127.0
2017-Jan-17 13:00N 25°24' W 075°54'16416.4 230 / 241023.810.8 23.020.125.0
2017-Jan-17 03:00N 26°12' W 078°48'2517.1 210 / 141023.910.8 23.020.127.0
2017-Jan-17 01:33N 26°14' W 079°15'1717.3
2017-Jan-17 00:33N 26°04' W 079°31'1817.9
2017-Jan-16 23:33N 25°56' W 079°49'1717.1
2017-Jan-16 22:33N 25°45' W 080°04'6 5.6
2017-Jan-16 21:33N 25°47' W 080°10'0 0.0
2017-Jan-16 20:33N 25°47' W 080°10'0 0.0
2017-Jan-16 19:33N 25°47' W 080°10'0 0.0
2017-Jan-16 18:33N 25°47' W 080°10'0 0.0
2017-Jan-16 17:33N 25°47' W 080°10'0 0.0
2017-Jan-16 16:33N 25°47' W 080°10'0 0.0
2017-Jan-16 15:33N 25°47' W 080°10'0 0.0
2017-Jan-16 14:27N 25°47' W 080°10'0 0.0
2017-Jan-16 13:33N 25°47' W 080°10'0 0.0
2017-Jan-16 12:33N 25°47' W 080°10'1 1.2
2017-Jan-16 11:33N 25°46' W 080°09'9 9.0
2017-Jan-16 10:33N 25°48' W 079°59'9 8.6
2017-Jan-16 09:33N 25°53' W 079°51'8 7.9
2017-Jan-16 08:33N 25°57' W 079°44'8 8.1
2017-Jan-16 07:33N 26°02' W 079°36'8 8.0
2017-Jan-16 06:33N 26°06' W 079°29'8 8.1
2017-Jan-16 05:33N 26°10' W 079°21'8 8.3
2017-Jan-16 04:33N 26°15' W 079°13'1711.1
2017-Jan-16 03:00N 26°12' W 078°54'47 0.9 350 / 121023.710.8 23.020.127.0
2017-Jan-14 00:00N 25°54' W 079°42'1022.7 140 / 251027.510.8 24.018.028.0
2017-Jan-13 23:33N 25°52' W 079°53'1212.1
2017-Jan-13 22:33N 25°46' W 080°04'5 5.3
2017-Jan-13 21:32N 25°47' W 080°10'0 0.0
2017-Jan-13 20:29N 25°47' W 080°10'0 0.0
2017-Jan-13 19:32N 25°47' W 080°10'0 0.0
2017-Jan-13 18:29N 25°47' W 080°10'0 0.0
2017-Jan-13 17:32N 25°47' W 080°10'0 0.0
2017-Jan-13 16:32N 25°47' W 080°10'0 0.0
2017-Jan-13 15:32N 25°47' W 080°10'0 0.0
2017-Jan-13 14:32N 25°47' W 080°10'0 0.0
2017-Jan-13 13:32N 25°47' W 080°10'0 0.0
2017-Jan-13 12:33N 25°47' W 080°10'3 2.7
2017-Jan-13 11:33N 25°46' W 080°07'9 8.6
2017-Jan-13 10:33N 25°44' W 079°58'1414.2
2017-Jan-13 09:34N 25°30' W 079°54'2415.6
2017-Jan-13 08:00N 25°06' W 079°54'8917.8 130 / 351024.510.8 23.018.527.0
2017-Jan-13 03:00N 24°00' W 081°00'24316.2 180 / 311024.310.8 24.014.627.0
2017-Jan-12 12:00N 22°18' W 085°00'6521.8 170 / 341021.027.0 24.021.122.0
2017-Jan-12 09:00N 21°36' W 085°54'6514.7 160 / 221019.610.8 25.017.528.0
2017-Jan-12 04:33N 20°50' W 086°44'1918.9
2017-Jan-12 03:33N 20°36' W 086°57'8 6.7
2017-Jan-12 02:25N 20°29' W 086°59'0 0.0
2017-Jan-12 01:31N 20°29' W 086°59'0 0.0
2017-Jan-12 00:31N 20°29' W 086°59'0 0.0
2017-Jan-11 23:31N 20°29' W 086°59'0 0.0
2017-Jan-11 22:31N 20°29' W 086°59'0 0.0
2017-Jan-11 21:28N 20°29' W 086°59'0 0.0
2017-Jan-11 20:31N 20°29' W 086°59'0 0.0
2017-Jan-11 19:31N 20°29' W 086°59'0 0.0
2017-Jan-11 18:31N 20°29' W 086°59'0 0.0
2017-Jan-11 17:31N 20°29' W 086°59'1 0.6
2017-Jan-11 16:33N 20°29' W 086°59'1212.2
2017-Jan-11 15:33N 20°40' W 086°53'5114.3
2017-Jan-11 12:00N 21°06' W 086°06'16741.9 330 / 361020.710.8 23.018.524.0
2017-Jan-11 08:00N 23°06' W 084°00'13 2.5 320 / 311022.110.8 22.012.128.0
2017-Jan-11 03:00N 23°12' W 083°48'212 8.8 340 / 301023.510.8 22.019.027.0
2017-Jan-10 03:00N 24°42' W 080°18'3523.4 340 / 241029.510.8 20.011.627.0
2017-Jan-10 01:29N 25°12' W 079°57'1313.6
2017-Jan-10 00:33N 25°25' W 079°55'1313.6
2017-Jan-09 23:33N 25°38' W 079°55'1211.6
2017-Jan-09 22:33N 25°46' W 080°05'5 4.9
2017-Jan-09 21:33N 25°47' W 080°10'0 0.0
2017-Jan-09 20:33N 25°47' W 080°10'0 0.0
2017-Jan-09 19:27N 25°47' W 080°10'0 0.0
2017-Jan-09 18:27N 25°47' W 080°10'0 0.0
2017-Jan-09 17:33N 25°47' W 080°10'0 0.0
2017-Jan-09 16:33N 25°47' W 080°10'0 0.0
2017-Jan-09 15:30N 25°47' W 080°10'  
Track history (hours):
 
Tides and Currents Weather Stations Pressure Air Temp Water Temp Dewpoint Dewpoint Depression Visibility Wind Speed Wind Dir Waves Ship Positions

Carnival Victory

Operator: Carnival Cruise Lines

Last reported at 2017-Jan-19 15:00 UTC. Time now 2017-Jan-19 21:23 UTC.
Position N 24°42' W 074°48'.

Type: Ship. MMSI: 355263000.

Wind from 150 at 8 knots

Barometer 1018.6 mb
Air temperature 23.0 ° C
Visibility: greater than 10.8 NM
Dewpoint 20.1 ° C
Water temperature 26.0 ° C

Date/timePositionNaut miles runAvg speedWind from/ knotsBaromVisibWave heightAir tempDewpointWater temp
2017-Jan-19 15:00N 24°42' W 074°48'5718.9 150 / 81018.610.8 23.020.126.0
2017-Jan-19 12:00N 24°06' W 074°00'101 3.1 180 / 91017.910.8 23.020.126.0
2017-Jan-18 03:00N 22°54' W 072°42'19416.2 210 / 171022.310.8 23.020.126.0
2017-Jan-17 15:00N 25°00' W 075°24'3618.1 240 / 211024.610.8 23.020.127.0
2017-Jan-17 13:00N 25°24' W 075°54'16416.4 230 / 241023.810.8 23.020.125.0
2017-Jan-17 03:00N 26°12' W 078°48'2517.1 210 / 141023.910.8 23.020.127.0
2017-Jan-17 01:33N 26°14' W 079°15'1717.3
2017-Jan-17 00:33N 26°04' W 079°31'1817.9
2017-Jan-16 23:33N 25°56' W 079°49'1717.1
2017-Jan-16 22:33N 25°45' W 080°04'6 5.6
2017-Jan-16 21:33N 25°47' W 080°10'0 0.0
2017-Jan-16 20:33N 25°47' W 080°10'0 0.0
2017-Jan-16 19:33N 25°47' W 080°10'0 0.0
2017-Jan-16 18:33N 25°47' W 080°10'0 0.0
2017-Jan-16 17:33N 25°47' W 080°10'0 0.0
2017-Jan-16 16:33N 25°47' W 080°10'0 0.0
2017-Jan-16 15:33N 25°47' W 080°10'0 0.0
2017-Jan-16 14:27N 25°47' W 080°10'0 0.0
2017-Jan-16 13:33N 25°47' W 080°10'0 0.0
2017-Jan-16 12:33N 25°47' W 080°10'1 1.2
2017-Jan-16 11:33N 25°46' W 080°09'9 9.0
2017-Jan-16 10:33N 25°48' W 079°59'9 8.6
2017-Jan-16 09:33N 25°53' W 079°51'8 7.9
2017-Jan-16 08:33N 25°57' W 079°44'8 8.1
2017-Jan-16 07:33N 26°02' W 079°36'8 8.0
2017-Jan-16 06:33N 26°06' W 079°29'8 8.1
2017-Jan-16 05:33N 26°10' W 079°21'8 8.3
2017-Jan-16 04:33N 26°15' W 079°13'1711.1
2017-Jan-16 03:00N 26°12' W 078°54'47 0.9 350 / 121023.710.8 23.020.127.0
2017-Jan-14 00:00N 25°54' W 079°42'1022.7 140 / 251027.510.8 24.018.028.0
2017-Jan-13 23:33N 25°52' W 079°53'1212.1
2017-Jan-13 22:33N 25°46' W 080°04'5 5.3
2017-Jan-13 21:32N 25°47' W 080°10'0 0.0
2017-Jan-13 20:29N 25°47' W 080°10'0 0.0
2017-Jan-13 19:32N 25°47' W 080°10'0 0.0
2017-Jan-13 18:29N 25°47' W 080°10'0 0.0
2017-Jan-13 17:32N 25°47' W 080°10'0 0.0
2017-Jan-13 16:32N 25°47' W 080°10'0 0.0
2017-Jan-13 15:32N 25°47' W 080°10'0 0.0
2017-Jan-13 14:32N 25°47' W 080°10'0 0.0
2017-Jan-13 13:32N 25°47' W 080°10'0 0.0
2017-Jan-13 12:33N 25°47' W 080°10'3 2.7
2017-Jan-13 11:33N 25°46' W 080°07'9 8.6
2017-Jan-13 10:33N 25°44' W 079°58'1414.2
2017-Jan-13 09:34N 25°30' W 079°54'2415.6
2017-Jan-13 08:00N 25°06' W 079°54'8917.8 130 / 351024.510.8 23.018.527.0
2017-Jan-13 03:00N 24°00' W 081°00'24316.2 180 / 311024.310.8 24.014.627.0
2017-Jan-12 12:00N 22°18' W 085°00'6521.8 170 / 341021.027.0 24.021.122.0
2017-Jan-12 09:00N 21°36' W 085°54'6514.7 160 / 221019.610.8 25.017.528.0
2017-Jan-12 04:33N 20°50' W 086°44'1918.9
2017-Jan-12 03:33N 20°36' W 086°57'8 6.7
2017-Jan-12 02:25N 20°29' W 086°59'0 0.0
2017-Jan-12 01:31N 20°29' W 086°59'0 0.0
2017-Jan-12 00:31N 20°29' W 086°59'0 0.0
2017-Jan-11 23:31N 20°29' W 086°59'0 0.0
2017-Jan-11 22:31N 20°29' W 086°59'0 0.0
2017-Jan-11 21:28N 20°29' W 086°59'0 0.0
2017-Jan-11 20:31N 20°29' W 086°59'0 0.0
2017-Jan-11 19:31N 20°29' W 086°59'0 0.0
2017-Jan-11 18:31N 20°29' W 086°59'0 0.0
2017-Jan-11 17:31N 20°29' W 086°59'1 0.6
2017-Jan-11 16:33N 20°29' W 086°59'1212.2
2017-Jan-11 15:33N 20°40' W 086°53'5114.3
2017-Jan-11 12:00N 21°06' W 086°06'16741.9 330 / 361020.710.8 23.018.524.0
2017-Jan-11 08:00N 23°06' W 084°00'13 2.5 320 / 311022.110.8 22.012.128.0
2017-Jan-11 03:00N 23°12' W 083°48'212 8.8 340 / 301023.510.8 22.019.027.0
2017-Jan-10 03:00N 24°42' W 080°18'3523.4 340 / 241029.510.8 20.011.627.0
2017-Jan-10 01:29N 25°12' W 079°57'1313.6
2017-Jan-10 00:33N 25°25' W 079°55'1313.6
2017-Jan-09 23:33N 25°38' W 079°55'1211.6
2017-Jan-09 22:33N 25°46' W 080°05'5 4.9
2017-Jan-09 21:33N 25°47' W 080°10'0 0.0
2017-Jan-09 20:33N 25°47' W 080°10'0 0.0
2017-Jan-09 19:27N 25°47' W 080°10'0 0.0
2017-Jan-09 18:27N 25°47' W 080°10'0 0.0
2017-Jan-09 17:33N 25°47' W 080°10'0 0.0
2017-Jan-09 16:33N 25°47' W 080°10'0 0.0
2017-Jan-09 15:30N 25°47' W 080°10'  

Dump ship's entire track history